sensor_id;sensor_type;location;lat;lon;timestamp;temperature;humidity
13426;DHT22;6785;57.918;12.530;2022-07-18T00:00:33;15.30;99.90
13426;DHT22;6785;57.918;12.530;2022-07-18T00:03:00;15.30;99.90
13426;DHT22;6785;57.918;12.530;2022-07-18T00:05:27;15.30;99.90
13426;DHT22;6785;57.918;12.530;2022-07-18T00:07:54;15.30;99.90
13426;DHT22;6785;57.918;12.530;2022-07-18T00:10:21;15.20;99.90
13426;DHT22;6785;57.918;12.530;2022-07-18T00:12:47;15.20;99.90
13426;DHT22;6785;57.918;12.530;2022-07-18T00:15:16;15.20;99.90
13426;DHT22;6785;57.918;12.530;2022-07-18T00:17:43;15.30;99.90
13426;DHT22;6785;57.918;12.530;2022-07-18T00:20:11;15.20;99.90
13426;DHT22;6785;57.918;12.530;2022-07-18T00:22:38;15.20;99.90
13426;DHT22;6785;57.918;12.530;2022-07-18T00:25:06;15.30;99.90
13426;DHT22;6785;57.918;12.530;2022-07-18T00:27:33;15.30;99.90
13426;DHT22;6785;57.918;12.530;2022-07-18T00:30:00;15.30;99.90
13426;DHT22;6785;57.918;12.530;2022-07-18T00:32:29;15.30;99.90
13426;DHT22;6785;57.918;12.530;2022-07-18T00:34:56;15.30;99.90
13426;DHT22;6785;57.918;12.530;2022-07-18T00:37:22;15.30;99.90
13426;DHT22;6785;57.918;12.530;2022-07-18T00:39:49;15.30;99.90
13426;DHT22;6785;57.918;12.530;2022-07-18T00:42:16;15.30;99.90
13426;DHT22;6785;57.918;12.530;2022-07-18T00:44:43;15.30;99.90
13426;DHT22;6785;57.918;12.530;2022-07-18T00:47:10;15.30;99.90
13426;DHT22;6785;57.918;12.530;2022-07-18T00:49:38;15.30;99.90
13426;DHT22;6785;57.918;12.530;2022-07-18T00:52:05;15.30;99.90
13426;DHT22;6785;57.918;12.530;2022-07-18T00:54:32;15.30;99.90
13426;DHT22;6785;57.918;12.530;2022-07-18T00:56:59;15.30;99.90
13426;DHT22;6785;57.918;12.530;2022-07-18T00:59:27;15.30;99.90
13426;DHT22;6785;57.918;12.530;2022-07-18T01:02:15;15.30;99.90
13426;DHT22;6785;57.918;12.530;2022-07-18T01:04:42;15.30;99.90
13426;DHT22;6785;57.918;12.530;2022-07-18T01:07:09;15.30;99.90
13426;DHT22;6785;57.918;12.530;2022-07-18T01:09:36;15.30;99.90
13426;DHT22;6785;57.918;12.530;2022-07-18T01:12:03;15.30;99.90
13426;DHT22;6785;57.918;12.530;2022-07-18T01:14:32;15.30;99.90
13426;DHT22;6785;57.918;12.530;2022-07-18T01:16:59;15.30;99.90
13426;DHT22;6785;57.918;12.530;2022-07-18T01:19:26;15.30;99.90
13426;DHT22;6785;57.918;12.530;2022-07-18T01:21:54;15.30;99.90
13426;DHT22;6785;57.918;12.530;2022-07-18T01:24:21;15.40;99.90
13426;DHT22;6785;57.918;12.530;2022-07-18T01:26:48;15.40;99.90
13426;DHT22;6785;57.918;12.530;2022-07-18T01:29:15;15.40;99.90
13426;DHT22;6785;57.918;12.530;2022-07-18T01:31:42;15.40;99.90
13426;DHT22;6785;57.918;12.530;2022-07-18T01:34:09;15.40;99.90
13426;DHT22;6785;57.918;12.530;2022-07-18T01:36:37;15.40;99.90
13426;DHT22;6785;57.918;12.530;2022-07-18T01:39:06;15.40;99.90
13426;DHT22;6785;57.918;12.530;2022-07-18T01:41:33;15.30;99.90
13426;DHT22;6785;57.918;12.530;2022-07-18T01:44:00;15.40;99.90
13426;DHT22;6785;57.918;12.530;2022-07-18T01:46:28;15.30;99.90
13426;DHT22;6785;57.918;12.530;2022-07-18T01:48:55;15.40;99.90
13426;DHT22;6785;57.918;12.530;2022-07-18T01:51:22;15.30;99.90
13426;DHT22;6785;57.918;12.530;2022-07-18T01:53:55;15.30;99.90
13426;DHT22;6785;57.918;12.530;2022-07-18T01:56:25;15.30;99.90
13426;DHT22;6785;57.918;12.530;2022-07-18T01:58:52;15.40;99.90
13426;DHT22;6785;57.918;12.530;2022-07-18T02:01:18;15.30;99.90
13426;DHT22;6785;57.918;12.530;2022-07-18T02:03:45;15.40;99.90
13426;DHT22;6785;57.918;12.530;2022-07-18T02:06:12;15.40;99.90
13426;DHT22;6785;57.918;12.530;2022-07-18T02:08:39;15.30;99.90
13426;DHT22;6785;57.918;12.530;2022-07-18T02:11:06;15.30;99.90
13426;DHT22;6785;57.918;12.530;2022-07-18T02:13:34;15.40;99.90
13426;DHT22;6785;57.918;12.530;2022-07-18T02:16:01;15.40;99.90
13426;DHT22;6785;57.918;12.530;2022-07-18T02:18:29;15.40;99.90
13426;DHT22;6785;57.918;12.530;2022-07-18T02:20:58;15.40;99.90
13426;DHT22;6785;57.918;12.530;2022-07-18T02:23:25;15.40;99.90
13426;DHT22;6785;57.918;12.530;2022-07-18T02:25:52;15.40;99.90
13426;DHT22;6785;57.918;12.530;2022-07-18T02:28:19;15.40;99.90
13426;DHT22;6785;57.918;12.530;2022-07-18T02:30:47;15.40;99.90
13426;DHT22;6785;57.918;12.530;2022-07-18T02:33:14;15.40;99.90
13426;DHT22;6785;57.918;12.530;2022-07-18T02:35:42;15.40;99.90
13426;DHT22;6785;57.918;12.530;2022-07-18T02:38:09;15.40;99.90
13426;DHT22;6785;57.918;12.530;2022-07-18T02:40:36;15.40;99.90
13426;DHT22;6785;57.918;12.530;2022-07-18T02:43:03;15.40;99.90
13426;DHT22;6785;57.918;12.530;2022-07-18T02:45:31;15.40;99.90
13426;DHT22;6785;57.918;12.530;2022-07-18T02:47:59;15.40;99.90
13426;DHT22;6785;57.918;12.530;2022-07-18T02:50:27;15.40;99.90
13426;DHT22;6785;57.918;12.530;2022-07-18T02:52:54;15.40;99.90
13426;DHT22;6785;57.918;12.530;2022-07-18T02:55:22;15.40;99.90
13426;DHT22;6785;57.918;12.530;2022-07-18T02:57:49;15.40;99.90
13426;DHT22;6785;57.918;12.530;2022-07-18T03:00:17;15.40;99.90
13426;DHT22;6785;57.918;12.530;2022-07-18T03:02:44;15.40;99.90
13426;DHT22;6785;57.918;12.530;2022-07-18T03:05:13;15.40;99.90
13426;DHT22;6785;57.918;12.530;2022-07-18T03:07:40;15.50;99.90
13426;DHT22;6785;57.918;12.530;2022-07-18T03:10:08;15.50;99.90
13426;DHT22;6785;57.918;12.530;2022-07-18T03:12:35;15.50;99.90
13426;DHT22;6785;57.918;12.530;2022-07-18T03:15:02;15.50;99.90
13426;DHT22;6785;57.918;12.530;2022-07-18T03:17:29;15.50;99.90
13426;DHT22;6785;57.918;12.530;2022-07-18T03:19:56;15.50;99.90
13426;DHT22;6785;57.918;12.530;2022-07-18T03:22:24;15.50;99.90
13426;DHT22;6785;57.918;12.530;2022-07-18T03:24:50;15.60;99.90
13426;DHT22;6785;57.918;12.530;2022-07-18T03:27:17;15.60;99.90
13426;DHT22;6785;57.918;12.530;2022-07-18T03:29:44;15.50;99.90
13426;DHT22;6785;57.918;12.530;2022-07-18T03:32:11;15.60;99.90
13426;DHT22;6785;57.918;12.530;2022-07-18T03:34:38;15.50;99.90
13426;DHT22;6785;57.918;12.530;2022-07-18T03:37:05;15.60;99.90
13426;DHT22;6785;57.918;12.530;2022-07-18T03:39:35;15.60;99.90
13426;DHT22;6785;57.918;12.530;2022-07-18T03:42:02;15.60;99.90
13426;DHT22;6785;57.918;12.530;2022-07-18T03:44:29;15.60;99.90
13426;DHT22;6785;57.918;12.530;2022-07-18T03:46:56;15.70;99.90
13426;DHT22;6785;57.918;12.530;2022-07-18T03:49:23;15.70;99.90
13426;DHT22;6785;57.918;12.530;2022-07-18T03:51:50;15.70;99.90
13426;DHT22;6785;57.918;12.530;2022-07-18T03:54:17;15.70;99.90
13426;DHT22;6785;57.918;12.530;2022-07-18T03:56:45;15.70;99.90
13426;DHT22;6785;57.918;12.530;2022-07-18T03:59:12;15.70;99.90
13426;DHT22;6785;57.918;12.530;2022-07-18T04:01:39;15.70;99.90
13426;DHT22;6785;57.918;12.530;2022-07-18T04:04:06;15.70;99.90
13426;DHT22;6785;57.918;12.530;2022-07-18T04:06:33;15.70;99.90
13426;DHT22;6785;57.918;12.530;2022-07-18T04:09:00;15.70;99.90
13426;DHT22;6785;57.918;12.530;2022-07-18T04:11:26;15.80;99.90
13426;DHT22;6785;57.918;12.530;2022-07-18T04:13:55;15.80;99.90
13426;DHT22;6785;57.918;12.530;2022-07-18T04:16:22;15.80;99.90
13426;DHT22;6785;57.918;12.530;2022-07-18T04:18:49;15.80;99.90
13426;DHT22;6785;57.918;12.530;2022-07-18T04:21:16;15.80;99.90
13426;DHT22;6785;57.918;12.530;2022-07-18T04:23:43;15.90;99.90
13426;DHT22;6785;57.918;12.530;2022-07-18T04:26:10;15.90;99.90
13426;DHT22;6785;57.918;12.530;2022-07-18T04:28:37;15.90;99.90
13426;DHT22;6785;57.918;12.530;2022-07-18T04:31:05;15.90;99.90
13426;DHT22;6785;57.918;12.530;2022-07-18T04:33:32;16.00;99.90
13426;DHT22;6785;57.918;12.530;2022-07-18T04:36:00;16.00;99.90
13426;DHT22;6785;57.918;12.530;2022-07-18T04:38:27;16.00;99.90
13426;DHT22;6785;57.918;12.530;2022-07-18T04:40:56;16.00;99.90
13426;DHT22;6785;57.918;12.530;2022-07-18T04:43:23;16.00;99.90
13426;DHT22;6785;57.918;12.530;2022-07-18T04:45:50;16.00;99.90
13426;DHT22;6785;57.918;12.530;2022-07-18T04:48:18;16.10;99.90
13426;DHT22;6785;57.918;12.530;2022-07-18T04:50:45;16.10;99.90
13426;DHT22;6785;57.918;12.530;2022-07-18T04:53:11;16.10;99.90
13426;DHT22;6785;57.918;12.530;2022-07-18T04:55:38;16.10;99.90
13426;DHT22;6785;57.918;12.530;2022-07-18T04:58:05;16.10;99.90
13426;DHT22;6785;57.918;12.530;2022-07-18T05:00:32;16.10;99.90
13426;DHT22;6785;57.918;12.530;2022-07-18T05:02:59;16.20;99.90
13426;DHT22;6785;57.918;12.530;2022-07-18T05:05:28;16.20;99.90
13426;DHT22;6785;57.918;12.530;2022-07-18T05:07:55;16.20;99.90
13426;DHT22;6785;57.918;12.530;2022-07-18T05:10:23;16.20;99.90
13426;DHT22;6785;57.918;12.530;2022-07-18T05:12:51;16.20;99.90
13426;DHT22;6785;57.918;12.530;2022-07-18T05:15:20;16.20;99.90
13426;DHT22;6785;57.918;12.530;2022-07-18T05:17:47;16.20;99.90
13426;DHT22;6785;57.918;12.530;2022-07-18T05:20:16;16.20;99.90
13426;DHT22;6785;57.918;12.530;2022-07-18T05:22:46;16.20;99.90
13426;DHT22;6785;57.918;12.530;2022-07-18T05:25:13;16.20;99.90
13426;DHT22;6785;57.918;12.530;2022-07-18T05:27:42;16.30;99.90
13426;DHT22;6785;57.918;12.530;2022-07-18T05:30:11;16.20;99.90
13426;DHT22;6785;57.918;12.530;2022-07-18T05:32:38;16.40;99.90
13426;DHT22;6785;57.918;12.530;2022-07-18T05:35:06;16.30;99.90
13426;DHT22;6785;57.918;12.530;2022-07-18T05:37:34;16.40;99.90
13426;DHT22;6785;57.918;12.530;2022-07-18T05:40:05;16.40;99.90
13426;DHT22;6785;57.918;12.530;2022-07-18T05:42:32;16.50;99.90
13426;DHT22;6785;57.918;12.530;2022-07-18T05:44:59;16.60;99.90
13426;DHT22;6785;57.918;12.530;2022-07-18T05:47:26;16.70;99.90
13426;DHT22;6785;57.918;12.530;2022-07-18T05:49:53;16.80;99.90
13426;DHT22;6785;57.918;12.530;2022-07-18T05:52:20;16.80;99.90
13426;DHT22;6785;57.918;12.530;2022-07-18T05:54:46;16.80;99.90
13426;DHT22;6785;57.918;12.530;2022-07-18T05:57:15;16.90;99.90
13426;DHT22;6785;57.918;12.530;2022-07-18T05:59:42;16.90;99.90
13426;DHT22;6785;57.918;12.530;2022-07-18T06:02:08;16.80;99.90
13426;DHT22;6785;57.918;12.530;2022-07-18T06:04:35;16.80;99.90
13426;DHT22;6785;57.918;12.530;2022-07-18T06:07:03;16.90;99.90
13426;DHT22;6785;57.918;12.530;2022-07-18T06:09:30;16.90;99.90
13426;DHT22;6785;57.918;12.530;2022-07-18T06:11:57;17.00;99.90
13426;DHT22;6785;57.918;12.530;2022-07-18T06:17:09;16.90;99.90
13426;DHT22;6785;57.918;12.530;2022-07-18T06:19:37;17.00;99.90
13426;DHT22;6785;57.918;12.530;2022-07-18T06:22:08;17.00;99.90
13426;DHT22;6785;57.918;12.530;2022-07-18T06:24:35;17.10;99.90
13426;DHT22;6785;57.918;12.530;2022-07-18T06:27:02;17.10;99.90
13426;DHT22;6785;57.918;12.530;2022-07-18T06:29:29;17.10;99.90
13426;DHT22;6785;57.918;12.530;2022-07-18T06:31:56;17.10;99.90
13426;DHT22;6785;57.918;12.530;2022-07-18T06:34:24;17.10;99.90
13426;DHT22;6785;57.918;12.530;2022-07-18T06:36:51;17.00;99.90
13426;DHT22;6785;57.918;12.530;2022-07-18T06:39:18;17.10;99.90
13426;DHT22;6785;57.918;12.530;2022-07-18T06:41:45;17.00;99.90
13426;DHT22;6785;57.918;12.530;2022-07-18T06:44:12;17.00;99.90
13426;DHT22;6785;57.918;12.530;2022-07-18T06:46:39;17.00;99.90
13426;DHT22;6785;57.918;12.530;2022-07-18T06:49:06;16.90;99.90
13426;DHT22;6785;57.918;12.530;2022-07-18T06:51:34;16.80;99.90
13426;DHT22;6785;57.918;12.530;2022-07-18T06:54:01;16.80;99.90
13426;DHT22;6785;57.918;12.530;2022-07-18T06:56:28;16.70;99.90
13426;DHT22;6785;57.918;12.530;2022-07-18T06:58:55;16.70;99.90
13426;DHT22;6785;57.918;12.530;2022-07-18T07:01:22;16.70;99.90
13426;DHT22;6785;57.918;12.530;2022-07-18T07:03:49;16.60;99.90
13426;DHT22;6785;57.918;12.530;2022-07-18T07:06:16;16.60;99.90
13426;DHT22;6785;57.918;12.530;2022-07-18T07:08:44;16.60;99.90
13426;DHT22;6785;57.918;12.530;2022-07-18T07:11:11;16.50;99.90
13426;DHT22;6785;57.918;12.530;2022-07-18T07:13:38;16.60;99.90
13426;DHT22;6785;57.918;12.530;2022-07-18T07:16:04;16.60;99.90
13426;DHT22;6785;57.918;12.530;2022-07-18T07:18:31;16.70;99.90
13426;DHT22;6785;57.918;12.530;2022-07-18T07:20:58;16.60;99.90
13426;DHT22;6785;57.918;12.530;2022-07-18T07:23:26;16.60;99.90
13426;DHT22;6785;57.918;12.530;2022-07-18T07:25:54;16.50;99.90
13426;DHT22;6785;57.918;12.530;2022-07-18T07:28:21;16.50;99.90
13426;DHT22;6785;57.918;12.530;2022-07-18T07:30:48;16.50;99.90
13426;DHT22;6785;57.918;12.530;2022-07-18T07:33:15;16.50;99.90
13426;DHT22;6785;57.918;12.530;2022-07-18T07:35:42;16.50;99.90
13426;DHT22;6785;57.918;12.530;2022-07-18T07:38:09;16.40;99.90
13426;DHT22;6785;57.918;12.530;2022-07-18T07:40:43;16.40;99.90
13426;DHT22;6785;57.918;12.530;2022-07-18T07:43:14;16.40;99.90
13426;DHT22;6785;57.918;12.530;2022-07-18T07:45:42;16.30;99.90
13426;DHT22;6785;57.918;12.530;2022-07-18T07:48:09;16.40;99.90
13426;DHT22;6785;57.918;12.530;2022-07-18T07:50:36;16.40;99.90
13426;DHT22;6785;57.918;12.530;2022-07-18T07:53:04;16.50;99.90
13426;DHT22;6785;57.918;12.530;2022-07-18T07:55:31;16.50;99.90
13426;DHT22;6785;57.918;12.530;2022-07-18T07:57:58;16.60;99.90
13426;DHT22;6785;57.918;12.530;2022-07-18T08:00:26;16.70;99.90
13426;DHT22;6785;57.918;12.530;2022-07-18T08:02:56;16.80;99.90
13426;DHT22;6785;57.918;12.530;2022-07-18T08:05:23;16.90;99.90
13426;DHT22;6785;57.918;12.530;2022-07-18T08:07:50;16.80;99.90
13426;DHT22;6785;57.918;12.530;2022-07-18T08:10:18;16.80;99.90
13426;DHT22;6785;57.918;12.530;2022-07-18T08:12:44;17.00;99.90
13426;DHT22;6785;57.918;12.530;2022-07-18T08:15:11;17.10;99.90
13426;DHT22;6785;57.918;12.530;2022-07-18T08:17:40;17.30;99.90
13426;DHT22;6785;57.918;12.530;2022-07-18T08:20:08;17.40;99.90
13426;DHT22;6785;57.918;12.530;2022-07-18T08:22:35;17.50;99.90
13426;DHT22;6785;57.918;12.530;2022-07-18T08:25:02;17.50;99.90
13426;DHT22;6785;57.918;12.530;2022-07-18T08:27:29;17.50;99.90
13426;DHT22;6785;57.918;12.530;2022-07-18T08:29:56;17.50;99.90
13426;DHT22;6785;57.918;12.530;2022-07-18T08:32:23;17.50;99.90
13426;DHT22;6785;57.918;12.530;2022-07-18T08:34:51;17.40;99.90
13426;DHT22;6785;57.918;12.530;2022-07-18T08:37:19;17.40;99.90
13426;DHT22;6785;57.918;12.530;2022-07-18T08:39:46;17.40;99.90
13426;DHT22;6785;57.918;12.530;2022-07-18T08:42:14;17.40;99.90
13426;DHT22;6785;57.918;12.530;2022-07-18T08:44:42;17.40;99.90
13426;DHT22;6785;57.918;12.530;2022-07-18T08:47:10;17.40;99.90
13426;DHT22;6785;57.918;12.530;2022-07-18T08:49:39;17.50;99.90
13426;DHT22;6785;57.918;12.530;2022-07-18T08:52:07;17.50;99.90
13426;DHT22;6785;57.918;12.530;2022-07-18T08:54:41;17.60;99.90
13426;DHT22;6785;57.918;12.530;2022-07-18T08:57:09;17.80;99.90
13426;DHT22;6785;57.918;12.530;2022-07-18T08:59:36;18.10;99.90
13426;DHT22;6785;57.918;12.530;2022-07-18T09:02:02;18.40;99.90
13426;DHT22;6785;57.918;12.530;2022-07-18T09:04:34;18.50;99.90
13426;DHT22;6785;57.918;12.530;2022-07-18T09:07:01;18.50;99.90
13426;DHT22;6785;57.918;12.530;2022-07-18T09:09:29;18.50;99.90
13426;DHT22;6785;57.918;12.530;2022-07-18T09:12:00;18.40;99.90
13426;DHT22;6785;57.918;12.530;2022-07-18T09:14:29;18.40;99.90
13426;DHT22;6785;57.918;12.530;2022-07-18T09:17:01;18.40;99.90
13426;DHT22;6785;57.918;12.530;2022-07-18T09:19:28;18.60;99.90
13426;DHT22;6785;57.918;12.530;2022-07-18T09:22:11;18.60;99.90
13426;DHT22;6785;57.918;12.530;2022-07-18T09:24:50;18.40;99.90
13426;DHT22;6785;57.918;12.530;2022-07-18T09:27:34;18.50;99.90
13426;DHT22;6785;57.918;12.530;2022-07-18T09:33:05;18.70;99.90
13426;DHT22;6785;57.918;12.530;2022-07-18T09:35:33;18.70;99.90
13426;DHT22;6785;57.918;12.530;2022-07-18T09:38:03;18.70;99.90
13426;DHT22;6785;57.918;12.530;2022-07-18T09:40:32;18.80;99.90
13426;DHT22;6785;57.918;12.530;2022-07-18T09:43:02;18.90;99.90
13426;DHT22;6785;57.918;12.530;2022-07-18T09:45:31;19.00;99.90
13426;DHT22;6785;57.918;12.530;2022-07-18T09:48:00;19.10;99.90
13426;DHT22;6785;57.918;12.530;2022-07-18T09:50:30;18.90;99.90
13426;DHT22;6785;57.918;12.530;2022-07-18T09:52:59;18.80;99.90
13426;DHT22;6785;57.918;12.530;2022-07-18T09:55:26;18.80;99.90
13426;DHT22;6785;57.918;12.530;2022-07-18T09:57:57;18.90;99.90
13426;DHT22;6785;57.918;12.530;2022-07-18T10:00:29;18.90;99.90
13426;DHT22;6785;57.918;12.530;2022-07-18T10:02:57;19.00;99.90
13426;DHT22;6785;57.918;12.530;2022-07-18T10:05:27;18.80;99.90
13426;DHT22;6785;57.918;12.530;2022-07-18T10:07:54;18.90;99.90
13426;DHT22;6785;57.918;12.530;2022-07-18T10:10:21;18.90;99.90
13426;DHT22;6785;57.918;12.530;2022-07-18T10:12:51;18.90;99.90
13426;DHT22;6785;57.918;12.530;2022-07-18T10:15:20;18.90;99.90
13426;DHT22;6785;57.918;12.530;2022-07-18T10:17:49;19.00;99.90
13426;DHT22;6785;57.918;12.530;2022-07-18T10:20:17;18.90;99.90
13426;DHT22;6785;57.918;12.530;2022-07-18T10:22:45;18.90;99.90
13426;DHT22;6785;57.918;12.530;2022-07-18T10:25:13;19.00;99.90
13426;DHT22;6785;57.918;12.530;2022-07-18T10:27:51;19.10;99.90
13426;DHT22;6785;57.918;12.530;2022-07-18T10:30:30;19.30;99.90
13426;DHT22;6785;57.918;12.530;2022-07-18T10:32:59;19.40;99.90
13426;DHT22;6785;57.918;12.530;2022-07-18T10:35:58;19.40;99.90
13426;DHT22;6785;57.918;12.530;2022-07-18T10:38:25;19.40;99.90
13426;DHT22;6785;57.918;12.530;2022-07-18T10:41:12;19.30;99.90
13426;DHT22;6785;57.918;12.530;2022-07-18T10:43:41;19.50;99.90
13426;DHT22;6785;57.918;12.530;2022-07-18T10:46:10;19.60;99.90
13426;DHT22;6785;57.918;12.530;2022-07-18T10:48:57;19.50;99.90
13426;DHT22;6785;57.918;12.530;2022-07-18T10:51:32;19.30;99.90
13426;DHT22;6785;57.918;12.530;2022-07-18T10:54:10;19.20;99.90
13426;DHT22;6785;57.918;12.530;2022-07-18T10:57:06;19.20;99.90
13426;DHT22;6785;57.918;12.530;2022-07-18T10:59:35;19.30;99.90
13426;DHT22;6785;57.918;12.530;2022-07-18T11:02:05;19.50;99.90
13426;DHT22;6785;57.918;12.530;2022-07-18T11:04:38;19.50;99.90
13426;DHT22;6785;57.918;12.530;2022-07-18T11:07:09;19.80;99.90
13426;DHT22;6785;57.918;12.530;2022-07-18T11:09:38;20.00;99.90
13426;DHT22;6785;57.918;12.530;2022-07-18T11:12:33;20.30;99.90
13426;DHT22;6785;57.918;12.530;2022-07-18T11:15:09;20.50;99.90
13426;DHT22;6785;57.918;12.530;2022-07-18T11:18:00;20.50;99.90
13426;DHT22;6785;57.918;12.530;2022-07-18T11:20:46;20.50;99.90
13426;DHT22;6785;57.918;12.530;2022-07-18T11:23:17;20.70;99.90
13426;DHT22;6785;57.918;12.530;2022-07-18T11:25:44;20.70;99.90
13426;DHT22;6785;57.918;12.530;2022-07-18T11:28:12;20.70;99.90
13426;DHT22;6785;57.918;12.530;2022-07-18T11:30:39;20.70;99.90
13426;DHT22;6785;57.918;12.530;2022-07-18T11:33:20;20.80;99.90
13426;DHT22;6785;57.918;12.530;2022-07-18T11:35:49;20.90;99.90
13426;DHT22;6785;57.918;12.530;2022-07-18T11:38:17;20.90;99.90
13426;DHT22;6785;57.918;12.530;2022-07-18T11:40:48;21.20;99.90
13426;DHT22;6785;57.918;12.530;2022-07-18T11:43:23;21.10;99.90
13426;DHT22;6785;57.918;12.530;2022-07-18T11:46:01;21.30;99.90
13426;DHT22;6785;57.918;12.530;2022-07-18T11:48:28;21.40;99.90
13426;DHT22;6785;57.918;12.530;2022-07-18T11:50:57;21.50;99.90
13426;DHT22;6785;57.918;12.530;2022-07-18T11:53:24;21.20;99.90
13426;DHT22;6785;57.918;12.530;2022-07-18T11:55:53;21.00;99.90
13426;DHT22;6785;57.918;12.530;2022-07-18T11:58:20;20.70;99.90
13426;DHT22;6785;57.918;12.530;2022-07-18T12:00:48;20.60;99.90
13426;DHT22;6785;57.918;12.530;2022-07-18T12:03:17;20.70;99.90
13426;DHT22;6785;57.918;12.530;2022-07-18T12:05:46;20.70;99.90
13426;DHT22;6785;57.918;12.530;2022-07-18T12:08:35;20.80;99.90
13426;DHT22;6785;57.918;12.530;2022-07-18T12:11:08;20.80;99.90
13426;DHT22;6785;57.918;12.530;2022-07-18T12:13:52;21.00;99.90
13426;DHT22;6785;57.918;12.530;2022-07-18T12:16:28;21.10;99.90
13426;DHT22;6785;57.918;12.530;2022-07-18T12:18:57;21.40;99.90
13426;DHT22;6785;57.918;12.530;2022-07-18T12:21:37;21.60;99.90
13426;DHT22;6785;57.918;12.530;2022-07-18T12:24:29;21.60;99.90
13426;DHT22;6785;57.918;12.530;2022-07-18T12:27:16;21.50;99.90
13426;DHT22;6785;57.918;12.530;2022-07-18T12:32:47;21.50;99.90
13426;DHT22;6785;57.918;12.530;2022-07-18T12:35:18;21.60;99.90
13426;DHT22;6785;57.918;12.530;2022-07-18T12:37:57;21.90;99.90
13426;DHT22;6785;57.918;12.530;2022-07-18T12:40:26;22.10;99.90
13426;DHT22;6785;57.918;12.530;2022-07-18T12:43:07;22.20;99.90
13426;DHT22;6785;57.918;12.530;2022-07-18T12:45:35;22.20;99.90
13426;DHT22;6785;57.918;12.530;2022-07-18T12:48:05;22.30;99.90
13426;DHT22;6785;57.918;12.530;2022-07-18T12:50:32;22.30;99.90
13426;DHT22;6785;57.918;12.530;2022-07-18T12:52:59;22.30;99.90
13426;DHT22;6785;57.918;12.530;2022-07-18T12:55:27;22.30;99.90
13426;DHT22;6785;57.918;12.530;2022-07-18T12:57:54;22.30;99.90
13426;DHT22;6785;57.918;12.530;2022-07-18T13:00:21;22.20;99.90
13426;DHT22;6785;57.918;12.530;2022-07-18T13:02:48;22.30;99.90
13426;DHT22;6785;57.918;12.530;2022-07-18T13:05:15;22.10;99.90
13426;DHT22;6785;57.918;12.530;2022-07-18T13:07:42;22.20;99.90
13426;DHT22;6785;57.918;12.530;2022-07-18T13:10:09;22.30;99.90
13426;DHT22;6785;57.918;12.530;2022-07-18T13:12:37;22.40;99.90
13426;DHT22;6785;57.918;12.530;2022-07-18T13:15:05;22.40;99.90
13426;DHT22;6785;57.918;12.530;2022-07-18T13:17:32;22.30;99.90
13426;DHT22;6785;57.918;12.530;2022-07-18T13:19:59;22.10;99.90
13426;DHT22;6785;57.918;12.530;2022-07-18T13:22:26;22.00;99.90
13426;DHT22;6785;57.918;12.530;2022-07-18T13:24:54;22.30;99.90
13426;DHT22;6785;57.918;12.530;2022-07-18T13:27:21;22.30;99.90
13426;DHT22;6785;57.918;12.530;2022-07-18T13:29:49;22.60;99.90
13426;DHT22;6785;57.918;12.530;2022-07-18T13:32:16;22.70;99.90
13426;DHT22;6785;57.918;12.530;2022-07-18T13:34:43;22.90;99.90
13426;DHT22;6785;57.918;12.530;2022-07-18T13:37:10;22.90;99.90
13426;DHT22;6785;57.918;12.530;2022-07-18T13:39:37;23.00;99.90
13426;DHT22;6785;57.918;12.530;2022-07-18T13:42:04;22.70;99.90
13426;DHT22;6785;57.918;12.530;2022-07-18T13:44:32;22.60;99.90
13426;DHT22;6785;57.918;12.530;2022-07-18T13:47:00;22.40;99.90
13426;DHT22;6785;57.918;12.530;2022-07-18T13:49:27;22.30;99.90
13426;DHT22;6785;57.918;12.530;2022-07-18T13:51:54;22.30;99.90
13426;DHT22;6785;57.918;12.530;2022-07-18T13:54:21;22.20;99.90
13426;DHT22;6785;57.918;12.530;2022-07-18T13:56:48;22.10;99.90
13426;DHT22;6785;57.918;12.530;2022-07-18T13:59:15;22.10;99.90
13426;DHT22;6785;57.918;12.530;2022-07-18T14:01:42;22.10;99.90
13426;DHT22;6785;57.918;12.530;2022-07-18T14:04:10;22.10;99.90
13426;DHT22;6785;57.918;12.530;2022-07-18T14:06:37;22.10;99.90
13426;DHT22;6785;57.918;12.530;2022-07-18T14:09:05;22.20;99.90
13426;DHT22;6785;57.918;12.530;2022-07-18T14:11:33;22.20;99.90
13426;DHT22;6785;57.918;12.530;2022-07-18T14:14:00;22.30;99.90
13426;DHT22;6785;57.918;12.530;2022-07-18T14:16:27;22.40;99.90
13426;DHT22;6785;57.918;12.530;2022-07-18T14:18:54;22.60;99.90
13426;DHT22;6785;57.918;12.530;2022-07-18T14:21:23;22.70;99.90
13426;DHT22;6785;57.918;12.530;2022-07-18T14:23:50;22.60;99.90
13426;DHT22;6785;57.918;12.530;2022-07-18T14:26:18;22.40;99.90
13426;DHT22;6785;57.918;12.530;2022-07-18T14:28:45;22.40;99.90
13426;DHT22;6785;57.918;12.530;2022-07-18T14:31:12;22.30;99.90
13426;DHT22;6785;57.918;12.530;2022-07-18T14:33:39;22.40;99.90
13426;DHT22;6785;57.918;12.530;2022-07-18T14:36:06;22.40;99.90
13426;DHT22;6785;57.918;12.530;2022-07-18T14:38:34;22.50;99.90
13426;DHT22;6785;57.918;12.530;2022-07-18T14:41:01;22.90;99.90
13426;DHT22;6785;57.918;12.530;2022-07-18T14:43:28;22.90;99.90
13426;DHT22;6785;57.918;12.530;2022-07-18T14:45:55;22.70;99.90
13426;DHT22;6785;57.918;12.530;2022-07-18T14:48:22;22.60;99.90
13426;DHT22;6785;57.918;12.530;2022-07-18T14:50:49;22.50;99.90
13426;DHT22;6785;57.918;12.530;2022-07-18T14:53:16;22.60;99.90
13426;DHT22;6785;57.918;12.530;2022-07-18T14:55:44;22.60;99.90
13426;DHT22;6785;57.918;12.530;2022-07-18T14:58:11;22.40;99.90
13426;DHT22;6785;57.918;12.530;2022-07-18T15:00:38;22.40;99.90
13426;DHT22;6785;57.918;12.530;2022-07-18T15:03:05;22.50;99.90
13426;DHT22;6785;57.918;12.530;2022-07-18T15:05:31;22.40;99.90
13426;DHT22;6785;57.918;12.530;2022-07-18T15:07:58;22.50;99.90
13426;DHT22;6785;57.918;12.530;2022-07-18T15:10:25;22.30;99.90
13426;DHT22;6785;57.918;12.530;2022-07-18T15:12:54;22.30;99.90
13426;DHT22;6785;57.918;12.530;2022-07-18T15:15:21;22.10;99.90
13426;DHT22;6785;57.918;12.530;2022-07-18T15:17:47;22.00;99.90
13426;DHT22;6785;57.918;12.530;2022-07-18T15:20:14;21.70;99.90
13426;DHT22;6785;57.918;12.530;2022-07-18T15:22:43;21.70;99.90
13426;DHT22;6785;57.918;12.530;2022-07-18T15:25:10;21.50;99.90
13426;DHT22;6785;57.918;12.530;2022-07-18T15:27:37;21.60;99.90
13426;DHT22;6785;57.918;12.530;2022-07-18T15:30:07;21.70;99.90
13426;DHT22;6785;57.918;12.530;2022-07-18T15:32:34;21.70;99.90
13426;DHT22;6785;57.918;12.530;2022-07-18T15:35:00;21.50;99.90
13426;DHT22;6785;57.918;12.530;2022-07-18T15:37:28;21.40;99.90
13426;DHT22;6785;57.918;12.530;2022-07-18T15:39:55;21.10;99.90
13426;DHT22;6785;57.918;12.530;2022-07-18T15:42:22;21.00;99.90
13426;DHT22;6785;57.918;12.530;2022-07-18T15:44:49;20.90;99.90
13426;DHT22;6785;57.918;12.530;2022-07-18T15:47:17;20.80;99.90